Terminal Aerodrome Forecast
Issued by NWS Duluth, MN

Home | Current Version | Previous Version | Text Only | Print | Product List | Glossary On
Versions: 1 2 3 4 5 6 7 8 9 10 11 12 13 14 15 16 17 18 19 20 21 22
000
FTUS43 KDLH 271100
TAFINL
TAF
KINL 271129Z 2712/2812 34007KT P6SM VCSH BKN018 OVC030
      TEMPO 2712/2715 5SM -RA SCT018 OVC030
     FM271500 02012G20KT P6SM VCSH BKN025 OVC035
     FM271800 02012KT P6SM SCT025 BKN035
     FM280000 36005KT P6SM SCT040=

USA.gov is the U.S. government's official web portal to all federal, state and local government web resources and services.